Nearby METAR Reports

 

KPBI - West Palm Beach, Florida, USA
Distance from station: NNE 9mi, 14km
Updated: Fri, 16-Nov-2018 2:53pm EST
Partly cloudy
Partly cloudy
 Wind from N
Wind: N 15 mph , 24 km/h
Temperature: 73°F , 23°C
Dew Point: 59°F , 15°C
Humidity: 61%
Barometer: 30.02 inHg , 1016.6 hPa
Clouds: Partly cloudy
Visibility: 10 miles , 16 km
Cloud details: Partly cloudy 3000 ft
Partly cloudy 6000 ft
2018/11/16 19:53 KPBI 161953Z 01013KT 10SM SCT030 SCT060 23/15 A3002 RMK AO2 SLP165 T02280150 $
KBCT - Boca Raton, Florida, USA
Distance from station: SSE 13mi, 21km
Updated: Fri, 16-Nov-2018 2:47pm EST
Few Clouds
Few Clouds
 Wind from N
Wind: N 15 mph , 24 km/h, Gust: 21 mph , 33 km/h
Temperature: 75°F , 24°C
Dew Point: 59°F , 15°C
Humidity: 57%
Barometer: 30.00 inHg , 1015.9 hPa
Clouds: Few Clouds
Visibility: 10 miles , 16 km
Cloud details: Few Clouds 3700 ft
2018/11/16 19:47 KBCT 161947Z 36013G18KT 10SM FEW037 24/15 A3000 RMK ATIS C
 
KPMP - Pompano Beach, Florida, USA
Distance from station: S 22mi, 36km
Updated: Fri, 16-Nov-2018 2:53pm EST
Overcast
Overcast
 Wind from NE
Wind: NE 12 mph , 19 km/h
Temperature: 77°F , 25°C
Dew Point: 61°F , 16°C
Humidity: 57%
Barometer: 30.00 inHg , 1015.9 hPa
Clouds: Overcast
Visibility: 10 miles , 16 km
Cloud details: Few Clouds 3500 ft
Overcast 6000 ft
2018/11/16 19:53 KPMP 161953Z 05010KT 10SM FEW035 OVC060 25/16 A3000 RMK AO2 SLP158 T02500161
KFXE - Ft Lauderd/Exec, Florida, USA
Distance from station: S 25mi, 41km
Updated: Fri, 16-Nov-2018 2:53pm EST
Partly cloudy
Partly cloudy
 Wind from NNW
Wind: NNW 10 mph , 17 km/h
Temperature: 77°F , 25°C
Dew Point: 61°F , 16°C
Humidity: 57%
Barometer: 29.99 inHg , 1015.6 hPa
Clouds: Partly cloudy
Visibility: 10 miles , 16 km
Cloud details: Partly cloudy 4000 ft
Partly cloudy 6000 ft
2018/11/16 19:53 KFXE 161953Z 34009KT 10SM SCT040 SCT060 25/16 A2999 RMK AO2 SLP159 T02500156
 
KFLL - Ft Lauderd/Holly, Florida, USA
Distance from station: S 35mi, 56km
Updated: Fri, 16-Nov-2018 2:53pm EST
Overcast
Overcast
 Wind from NE
Wind: NE 10 mph , 17 km/h
Temperature: 73°F , 23°C
Dew Point: 63°F , 17°C
Humidity: 69%
Barometer: 29.98 inHg , 1015.2 hPa
Clouds: Overcast
Visibility: 10 miles , 16 km
Cloud details: Overcast 5500 ft
2018/11/16 19:53 KFLL 161953Z 05009KT 10SM OVC055 23/17 A2998 RMK AO2 SLP153 T02330172
KHWO - Hollywood, Florida, USA
Distance from station: S 39mi, 64km
Updated: Fri, 16-Nov-2018 2:53pm EST
Overcast
Overcast
 Wind from N
Wind: N 9 mph , 15 km/h
Temperature: 77°F , 25°C
Dew Point: 61°F , 16°C
Humidity: 57%
Barometer: 30.01 inHg , 1016.3 hPa
Clouds: Overcast
Visibility: 10 miles , 16 km
Cloud details: Overcast 5000 ft
2018/11/16 19:53 KHWO 161953Z 36008KT 10SM OVC050 25/16 A3001 RMK AO2 SLP161 T02500156
 
KSUA - Stuart/Witham, Florida, USA
Distance from station: N 43mi, 69km
Updated: Fri, 16-Nov-2018 2:47pm EST
Mostly cloudy
Mostly cloudy
 Wind from NNW
Wind: NNW 12 mph , 19 km/h, Gust: 23 mph , 37 km/h
Temperature: 68°F , 20°C
Dew Point: 57°F , 14°C
Humidity: 69%
Barometer: 30.05 inHg , 1017.6 hPa
Clouds: Mostly cloudy
Visibility: 7 miles , 11 km
Cloud details: Mostly cloudy 2100 ft
2018/11/16 19:47 KSUA 161947Z 34010G20KT 7SM BKN021 20/14 A3005
KOPF - Miami/Opa Locka, Florida, USA
Distance from station: S 46mi, 73km
Updated: Fri, 16-Nov-2018 2:53pm EST
Overcast
Overcast
 Wind from N
Wind: N 8 mph , 13 km/h
Temperature: 75°F , 24°C
Dew Point: 63°F , 17°C
Humidity: 65%
Barometer: 30.00 inHg , 1015.9 hPa
Clouds: Overcast
Visibility: 10 miles , 16 km
Cloud details: Overcast 5000 ft
2018/11/16 19:53 KOPF 161953Z 35007KT 10SM OVC050 24/17 A3000 RMK AO2 SLP159 T02390167
 
KMIA - Miami, Florida, USA
Distance from station: S 54mi, 86km
Updated: Fri, 16-Nov-2018 2:53pm EST
Mostly cloudy
Mostly cloudy
 Wind from N
Wind: N 8 mph , 13 km/h
Temperature: 73°F , 23°C
Dew Point: 61°F , 16°C
Humidity: 65%
Barometer: 29.99 inHg , 1015.6 hPa
Clouds: Mostly cloudy
Visibility: 10 miles , 16 km
Cloud details: Few Clouds 2500 ft
Mostly cloudy 4500 ft
2018/11/16 19:53 KMIA 161953Z 36007KT 340V050 10SM FEW025 BKN045 23/16 A2999 RMK AO2 SLP156 T02280161
KOBE - Okeechobee Cty, Florida, USA
Distance from station: NW 64mi, 104km
Updated: Fri, 16-Nov-2018 3:35pm EST
Clear
Clear
 Wind from NNE
Wind: NNE 7 mph , 11 km/h
Temperature: 70°F , 21°C
Dew Point: 46°F , 8°C
Humidity: 43%
Barometer: 30.05 inHg , 1017.6 hPa
Clouds: Clear
Visibility: 10 miles , 16 km
2018/11/16 20:35 KOBE 162035Z AUTO 03006KT 10SM CLR 21/08 A3005 RMK AO2
 
KFPR - Fort Pierce, Florida, USA
Distance from station: NNW 66mi, 106km
Updated: Fri, 16-Nov-2018 2:53pm EST
Partly cloudy
Partly cloudy
 Wind from N
Wind: N 8 mph , 13 km/h
Temperature: 70°F , 21°C
Dew Point: 55°F , 13°C
Humidity: 60%
Barometer: 30.05 inHg , 1017.6 hPa
Clouds: Partly cloudy
Visibility: 10 miles , 16 km
Cloud details: Partly cloudy 2600 ft
2018/11/16 19:53 KFPR 161953Z 01007KT 340V040 10SM SCT026 21/13 A3005 RMK AO2 SLP175 T02110133
KTMB - Miami/Tamiami, Florida, USA
Distance from station: SSW 66mi, 106km
Updated: Fri, 16-Nov-2018 2:53pm EST
Overcast
Overcast
 Wind from N
Wind: N 9 mph , 15 km/h
Temperature: 75°F , 24°C
Dew Point: 61°F , 16°C
Humidity: 61%
Barometer: 29.99 inHg , 1015.6 hPa
Clouds: Overcast
Visibility: 10 miles , 16 km
Cloud details: Few Clouds 4200 ft
Overcast 5500 ft
2018/11/16 19:53 KTMB 161953Z 36008KT 10SM FEW042 OVC055 24/16 A2999 RMK AO2 SLP154 T02390161
 
KVRB - Vero Beach, Florida, USA
Distance from station: NNW 76mi, 123km
Updated: Fri, 16-Nov-2018 2:53pm EST
Few Clouds
Few Clouds
 Wind from N
Wind: N 10 mph , 17 km/h, Gust: 18 mph , 30 km/h
Temperature: 68°F , 20°C
Dew Point: 55°F , 13°C
Humidity: 64%
Barometer: 30.06 inHg , 1017.9 hPa
Clouds: Few Clouds
Visibility: 10 miles , 16 km
Cloud details: Few Clouds 2400 ft
2018/11/16 19:53 KVRB 161953Z 01009G16KT 10SM FEW024 20/13 A3006 RMK AO2 SLP177 T02000128
KHST - Homestead Afb, Florida, USA
Distance from station: S 77mi, 124km
Updated: Fri, 16-Nov-2018 2:44pm EST
Overcast
Overcast
 Wind from NNE
Wind: NNE 7 mph , 11 km/h
Temperature: 73°F , 23°C
Dew Point: 63°F , 17°C
Humidity: 69%
Barometer: 29.98 inHg , 1015.2 hPa
Clouds: Overcast
Visibility: 10 miles , 16 km
Cloud details: Overcast 4000 ft
2018/11/16 19:44 KHST 161944Z 02006KT 10SM OVC040 23/17 A2998 RMK AO2A SLP155 FZRANO VISNO RWY24 $
 
KIMM - Immokalee, Florida, USA
Distance from station: W 77mi, 124km
Updated: Fri, 16-Nov-2018 3:35pm EST
Clear
Clear
 Wind from NNE
Wind: NNE 10 mph , 17 km/h
Temperature: 73°F , 23°C
Dew Point: 46°F , 8°C
Humidity: 38%
Barometer: 30.04 inHg , 1017.3 hPa
Clouds: Clear
Visibility: 10 miles , 16 km
2018/11/16 20:35 KIMM 162035Z AUTO 03009KT 10SM CLR 23/08 A3004 RMK A01
MYGF - Freeport Intl A, Bahamas
Distance from station: E 90mi, 145km
Updated: Fri, 16-Nov-2018 3:00pm EST
Mostly cloudy
Mostly cloudy
 Wind from NNE
Wind: NNE 18 mph , 30 km/h
Temperature: 77°F , 25°C
Dew Point: 66°F , 19°C
Humidity: 69%
Barometer: 29.98 inHg , 1015.2 hPa
Clouds: Mostly cloudy
Visibility: 6 miles , 10 km
Cloud details: Partly cloudy 2500 ft
Mostly cloudy 4000 ft
2018/11/16 20:00 MYGF 162000Z 03016KT 9999 SCT025 BKN040 25/19 A2998
 
KSEF - Sebring, Florida, USA
Distance from station: NW 95mi, 153km
Updated: Fri, 16-Nov-2018 3:15pm EST
Clear
Clear
 Wind from N
Wind: N 6 mph , 9 km/h
Temperature: 72°F , 22°C
Dew Point: 41°F , 5°C
Humidity: 33%
Barometer: 30.06 inHg , 1017.9 hPa
Clouds: Clear
Visibility: 10 miles , 16 km
2018/11/16 20:15 KSEF 162015Z AUTO 01005KT 10SM CLR 22/05 A3006 RMK AO2 T02210051
KRSW - Fort Myers, Florida, USA
Distance from station: W 98mi, 158km
Updated: Fri, 16-Nov-2018 2:53pm EST
Clear
Clear
 Wind from NNE
Wind: NNE 12 mph , 19 km/h
Temperature: 72°F , 22°C
Dew Point: 45°F , 7°C
Humidity: 38%
Barometer: 30.05 inHg , 1017.6 hPa
Clouds: Clear
Visibility: 10 miles , 16 km
2018/11/16 19:53 KRSW 161953Z AUTO 03010KT 10SM CLR 22/07 A3005 RMK AO2 SLP172 T02170072